createdAt,value
2022-09-05T00:00:12.958Z,101152.75
2022-09-05T00:02:56.245Z,101151.94
2022-09-05T00:05:38.581Z,101152.94
2022-09-05T00:08:35.859Z,101151.34
2022-09-05T00:11:41.202Z,101142.78
2022-09-05T00:15:17.147Z,101147.38
2022-09-05T00:18:11.909Z,101149.06
2022-09-05T00:24:20.826Z,101135.41
2022-09-05T00:24:36.554Z,101146.19
2022-09-05T00:26:50.280Z,101144.50
2022-09-05T00:31:05.501Z,101146.56
2022-09-05T00:32:50.891Z,101143.25
2022-09-05T00:35:31.594Z,101138.06
2022-09-05T00:38:10.894Z,101126.62
2022-09-05T00:40:46.275Z,101136.59
2022-09-05T00:43:23.258Z,101135.78
2022-09-05T00:46:04.201Z,101130.22
2022-09-05T00:48:46.946Z,101116.31
2022-09-05T00:51:38.497Z,101104.69
2022-09-05T00:54:40.167Z,101123.56
2022-09-05T00:57:17.913Z,101120.06
2022-09-05T01:00:21.307Z,101097.03
2022-09-05T01:02:58.024Z,101099.91
2022-09-05T01:05:48.730Z,101121.66
2022-09-05T01:08:45.498Z,101117.50
2022-09-05T01:11:50.311Z,101106.31
2022-09-05T01:14:25.481Z,101116.81
2022-09-05T01:17:20.213Z,101108.50
2022-09-05T01:20:21.157Z,101091.47
2022-09-05T01:23:23.870Z,101099.94
2022-09-05T01:26:05.538Z,101100.34
2022-09-05T01:29:15.152Z,101106.47
2022-09-05T01:32:17.273Z,101108.72
2022-09-05T01:34:56.663Z,101096.44
2022-09-05T01:37:41.014Z,101111.59
2022-09-05T01:40:16.677Z,101090.00
2022-09-05T01:43:15.079Z,101103.56
2022-09-05T01:45:47.780Z,101103.16
2022-09-05T01:48:47.539Z,101100.72
2022-09-05T01:51:46.735Z,101097.66
2022-09-05T01:54:33.984Z,101102.63
2022-09-05T01:57:20.214Z,101103.06
2022-09-05T01:59:54.963Z,101085.91
2022-09-05T02:02:40.407Z,101097.50
2022-09-05T02:05:48.636Z,101088.44
2022-09-05T02:08:23.825Z,101088.44
2022-09-05T02:11:09.732Z,101090.31
2022-09-05T02:13:36.322Z,101081.19
2022-09-05T02:16:18.209Z,101082.06
2022-09-05T02:19:06.263Z,101072.91
2022-09-05T02:21:33.475Z,101070.03
2022-09-05T02:24:32.354Z,101075.66
2022-09-05T02:28:05.380Z,101080.84
2022-09-05T02:30:34.649Z,101081.66
2022-09-05T02:33:13.801Z,101060.69
2022-09-05T02:35:46.170Z,101076.50
2022-09-05T02:43:47.254Z,101075.00
2022-09-05T02:45:08.930Z,101074.59
2022-09-05T02:45:10.274Z,101072.31
2022-09-05T02:47:50.358Z,101072.09
2022-09-05T02:55:38.501Z,101070.41
2022-09-05T02:57:34.570Z,101055.69
2022-09-05T02:57:39.468Z,101073.87
2022-09-05T02:59:51.694Z,101058.94
2022-09-05T03:02:27.103Z,101059.12
2022-09-05T03:05:23.578Z,101078.16
2022-09-05T03:08:05.753Z,101082.72
2022-09-05T03:11:03.770Z,101080.22
2022-09-05T03:13:54.397Z,101065.47
2022-09-05T03:16:47.337Z,101070.06
2022-09-05T03:19:33.087Z,101070.25
2022-09-05T03:22:11.391Z,101076.63
2022-09-05T03:25:05.838Z,101084.87
2022-09-05T03:28:20.754Z,101076.22
2022-09-05T03:31:22.138Z,101074.50
2022-09-05T03:33:58.929Z,101079.91
2022-09-05T03:36:48.051Z,101081.97
2022-09-05T03:39:52.676Z,101087.31
2022-09-05T03:42:49.651Z,101087.13
2022-09-05T03:45:26.976Z,101084.66
2022-09-05T03:48:28.551Z,101063.75
2022-09-05T03:57:08.083Z,101069.12
2022-09-05T03:57:13.504Z,101092.31
2022-09-05T04:00:23.212Z,101078.63
2022-09-05T04:08:07.406Z,101093.56
2022-09-05T04:08:16.943Z,101070.56
2022-09-05T04:09:06.488Z,101070.84
2022-09-05T04:11:37.629Z,101062.97
2022-09-05T04:14:26.568Z,101084.94
2022-09-05T04:16:59.701Z,101087.47
2022-09-05T04:19:49.036Z,101087.47
2022-09-05T04:22:25.594Z,101084.56
2022-09-05T04:25:02.973Z,101080.22
2022-09-05T04:27:41.968Z,101077.53
2022-09-05T04:30:38.633Z,101079.12
2022-09-05T04:33:23.420Z,101092.44
2022-09-05T04:36:08.858Z,101095.31
2022-09-05T04:38:45.670Z,101077.66
2022-09-05T04:41:16.518Z,101088.66
2022-09-05T04:43:59.192Z,101074.16
2022-09-05T04:46:53.687Z,101093.56
2022-09-05T04:49:30.043Z,101095.22
2022-09-05T04:52:22.900Z,101099.31
2022-09-05T04:55:25.759Z,101079.78
2022-09-05T04:58:07.058Z,101088.53
2022-09-05T05:06:05.976Z,101104.44
2022-09-05T05:06:10.661Z,101099.91
2022-09-05T05:06:45.105Z,101091.41
2022-09-05T05:09:25.009Z,101102.38
2022-09-05T05:17:58.767Z,101100.75
2022-09-05T05:18:06.384Z,101086.81
2022-09-05T05:18:56.111Z,101107.31
2022-09-05T05:21:30.439Z,101114.34
2022-09-05T05:24:01.516Z,101112.69
2022-09-05T05:26:36.983Z,101106.50
2022-09-05T05:29:19.457Z,101107.06
2022-09-05T05:31:51.414Z,101112.88
2022-09-05T05:34:25.308Z,101104.37
2022-09-05T05:37:00.686Z,101106.59
2022-09-05T05:39:30.046Z,101086.66
2022-09-05T05:41:59.003Z,101110.25
2022-09-05T05:44:54.529Z,101108.37
2022-09-05T05:47:31.221Z,101106.34
2022-09-05T05:50:14.147Z,101108.00
2022-09-05T05:52:59.867Z,101123.16
2022-09-05T05:56:07.260Z,101119.44
2022-09-05T05:58:42.274Z,101107.50
2022-09-05T06:01:38.778Z,101107.56
2022-09-05T06:04:21.139Z,101114.47
2022-09-05T06:06:56.733Z,101104.50
2022-09-05T06:14:51.884Z,101122.22
2022-09-05T06:15:00.480Z,101123.50
2022-09-05T06:16:35.725Z,101117.78
2022-09-05T06:19:34.210Z,101107.69
2022-09-05T06:22:37.834Z,101123.09
2022-09-05T06:25:54.398Z,101122.16
2022-09-05T06:28:59.872Z,101117.12
2022-09-05T06:31:42.171Z,101123.62
2022-09-05T06:34:35.406Z,101133.50
2022-09-05T06:37:09.770Z,101166.53
2022-09-05T06:40:02.960Z,101184.06
2022-09-05T06:42:50.766Z,101184.19
2022-09-05T06:46:02.935Z,101184.72
2022-09-05T06:48:44.249Z,101193.28
2022-09-05T06:51:27.578Z,101191.03
2022-09-05T06:54:09.944Z,101204.97
2022-09-05T06:56:47.006Z,101206.41
2022-09-05T06:59:51.037Z,101211.06
2022-09-05T07:02:58.909Z,101215.19
2022-09-05T07:05:45.483Z,101207.47
2022-09-05T07:08:35.694Z,101180.38
2022-09-05T07:11:15.765Z,101144.81
2022-09-05T07:14:33.226Z,101134.16
2022-09-05T07:17:16.103Z,101148.84
2022-09-05T07:19:56.015Z,101153.25
2022-09-05T07:22:48.038Z,101159.69
2022-09-05T07:25:20.264Z,101226.81
2022-09-05T07:28:29.186Z,101271.78
2022-09-05T07:31:00.428Z,101250.13
2022-09-05T07:33:31.248Z,101250.25
2022-09-05T07:36:10.675Z,101245.91
2022-09-05T07:38:55.267Z,101266.66
2022-09-05T07:41:39.684Z,101267.19
2022-09-05T07:44:12.584Z,101254.66
2022-09-05T07:46:42.042Z,101255.34
2022-09-05T07:49:16.231Z,101235.28
2022-09-05T07:56:53.051Z,101232.34
2022-09-05T07:57:15.684Z,101215.06
2022-09-05T07:58:08.498Z,101212.41
2022-09-05T08:00:36.452Z,101188.50
2022-09-05T08:03:14.890Z,101188.75
2022-09-05T08:05:49.430Z,101161.25
2022-09-05T08:08:22.949Z,101169.44
2022-09-05T08:11:23.747Z,101180.38
2022-09-05T08:14:10.447Z,101176.94
2022-09-05T08:16:43.888Z,101177.31
2022-09-05T08:19:32.647Z,101187.66
2022-09-05T08:22:02.275Z,101182.94
2022-09-05T08:24:38.036Z,101178.16
2022-09-05T08:27:23.070Z,101167.59
2022-09-05T08:30:24.719Z,101171.84
2022-09-05T08:33:10.465Z,101174.53
2022-09-05T08:36:01.314Z,101175.75
2022-09-05T08:38:40.368Z,101175.56
2022-09-05T08:41:17.707Z,101178.22
2022-09-05T08:46:37.489Z,101172.16
2022-09-05T08:46:50.601Z,101172.41
2022-09-05T08:49:39.418Z,101166.88
2022-09-05T08:52:26.511Z,101175.66
2022-09-05T08:55:25.239Z,101158.94
2022-09-05T08:58:15.813Z,101173.00
2022-09-05T09:01:00.214Z,101178.06
2022-09-05T09:03:52.103Z,101173.63
2022-09-05T09:06:42.506Z,101172.87
2022-09-05T09:09:45.528Z,101166.63
2022-09-05T09:12:43.883Z,101167.72
2022-09-05T09:15:25.060Z,101158.50
2022-09-05T09:17:53.113Z,101163.34
2022-09-05T09:20:48.564Z,101161.78
2022-09-05T09:23:49.548Z,101159.81
2022-09-05T09:26:24.500Z,101160.72
2022-09-05T09:29:00.757Z,101129.03
2022-09-05T09:31:52.797Z,101152.88
2022-09-05T09:34:25.801Z,101156.53
2022-09-05T09:37:15.144Z,101147.12
2022-09-05T09:40:04.398Z,101143.53
2022-09-05T09:43:06.388Z,101141.59
2022-09-05T09:45:45.922Z,101131.78
2022-09-05T09:48:28.826Z,101121.09
2022-09-05T09:51:26.958Z,101107.66
2022-09-05T09:54:16.451Z,101104.31
2022-09-05T09:56:59.718Z,101110.00
2022-09-05T09:59:26.657Z,101108.88
2022-09-05T10:01:59.588Z,101107.50
2022-09-05T10:10:38.668Z,101095.56
2022-09-05T10:10:51.894Z,101113.00
2022-09-05T10:14:22.460Z,101129.09
2022-09-05T10:17:22.706Z,101152.69
2022-09-05T10:20:19.478Z,101167.88
2022-09-05T10:23:16.556Z,101167.38
2022-09-05T10:26:14.503Z,101155.44
2022-09-05T10:29:37.217Z,101150.19
2022-09-05T10:35:10.063Z,101138.94
2022-09-05T10:35:27.038Z,101119.81
2022-09-05T10:37:57.725Z,101130.84
2022-09-05T10:40:27.733Z,101134.72
2022-09-05T10:43:08.301Z,101120.16
2022-09-05T10:45:49.703Z,101122.06
2022-09-05T10:48:26.353Z,101109.03
2022-09-05T10:51:26.235Z,101113.69
2022-09-05T10:54:37.980Z,101110.91
2022-09-05T10:57:23.747Z,101099.31
2022-09-05T11:02:21.509Z,101109.34
2022-09-05T11:03:00.693Z,101107.97
2022-09-05T11:05:38.441Z,101103.03
2022-09-05T11:08:27.098Z,101100.19
2022-09-05T11:11:26.051Z,101089.31
2022-09-05T11:14:21.206Z,101102.41
2022-09-05T11:16:58.994Z,101098.75
2022-09-05T11:19:41.048Z,101100.66
2022-09-05T11:22:23.011Z,101102.16
2022-09-05T11:24:59.971Z,101093.19
2022-09-05T11:27:35.403Z,101105.69
2022-09-05T11:30:07.600Z,101090.66
2022-09-05T11:39:45.663Z,101086.16
2022-09-05T11:39:54.836Z,101080.00
2022-09-05T11:40:28.348Z,101082.31
2022-09-05T11:42:43.475Z,101080.06
2022-09-05T11:45:40.612Z,101072.41
2022-09-05T11:48:44.572Z,101078.84
2022-09-05T11:51:45.181Z,101073.44
2022-09-05T11:54:34.157Z,101075.94
2022-09-05T11:57:09.794Z,101079.28
2022-09-05T12:00:31.923Z,101076.19
2022-09-05T12:03:57.113Z,101064.34
2022-09-05T12:06:19.558Z,101071.84
2022-09-05T12:08:59.066Z,101071.88
2022-09-05T12:11:45.471Z,101064.63
2022-09-05T12:14:51.396Z,101067.75
2022-09-05T12:17:40.597Z,101070.25
2022-09-05T12:20:22.029Z,101073.94
2022-09-05T12:23:36.852Z,101067.94
2022-09-05T12:26:30.730Z,101075.41
2022-09-05T12:29:35.058Z,101073.94
2022-09-05T12:33:40.835Z,101063.16
2022-09-05T12:36:06.950Z,101069.78
2022-09-05T12:41:42.464Z,101057.75
2022-09-05T12:41:44.996Z,101055.66
2022-09-05T12:44:40.972Z,101049.88
2022-09-05T12:47:19.146Z,101048.00
2022-09-05T12:50:03.355Z,101025.62
2022-09-05T12:52:44.698Z,101040.13
2022-09-05T12:55:17.408Z,101035.56
2022-09-05T13:02:59.294Z,101034.94
2022-09-05T13:03:02.329Z,101050.25
2022-09-05T13:03:53.475Z,101039.88
2022-09-05T13:06:31.078Z,101041.97
2022-09-05T13:09:19.696Z,101029.13
2022-09-05T13:14:58.833Z,101043.66
2022-09-05T13:15:22.907Z,101048.19
2022-09-05T13:17:59.261Z,101052.53
2022-09-05T13:20:34.445Z,101049.00
2022-09-05T13:23:11.374Z,101055.44
2022-09-05T13:25:43.985Z,101040.53
2022-09-05T13:28:14.525Z,101052.34
2022-09-05T13:36:12.609Z,101046.56
2022-09-05T13:38:06.455Z,101050.69
2022-09-05T13:38:09.897Z,101049.06
2022-09-05T13:39:59.581Z,101042.81
2022-09-05T13:42:57.245Z,101038.88
2022-09-05T13:45:27.059Z,101048.41
2022-09-05T13:47:53.787Z,101056.28
2022-09-05T13:50:31.671Z,101048.62
2022-09-05T13:53:37.515Z,101062.31
2022-09-05T13:56:24.171Z,101053.19
2022-09-05T13:58:58.119Z,101055.91
2022-09-05T14:01:36.997Z,101058.22
2022-09-05T14:07:45.087Z,101061.50
2022-09-05T14:10:25.226Z,101040.78
2022-09-05T14:13:04.315Z,101066.91
2022-09-05T14:15:59.161Z,101060.91
2022-09-05T14:18:58.887Z,101063.78
2022-09-05T14:21:30.027Z,101064.44
2022-09-05T14:24:27.995Z,101054.47
2022-09-05T14:27:19.825Z,101059.47
2022-09-05T14:30:00.997Z,101064.63
2022-09-05T14:37:45.869Z,101040.00
2022-09-05T14:38:00.714Z,101071.28
2022-09-05T14:39:31.980Z,101066.09
2022-09-05T14:42:21.255Z,101064.44
2022-09-05T14:45:06.459Z,101069.19
2022-09-05T14:47:47.470Z,101071.06
2022-09-05T14:50:35.015Z,101066.50
2022-09-05T14:56:50.128Z,101071.91
2022-09-05T15:02:39.764Z,101073.94
2022-09-05T15:02:50.548Z,101077.03
2022-09-05T15:05:11.669Z,101083.88
2022-09-05T15:07:41.849Z,101081.37
2022-09-05T15:12:17.314Z,101060.84
2022-09-05T15:13:07.877Z,101072.47
2022-09-05T15:16:03.215Z,101073.09
2022-09-05T15:18:44.015Z,101074.97
2022-09-05T15:21:35.257Z,101080.16
2022-09-05T15:24:25.376Z,101078.47
2022-09-05T15:27:01.950Z,101072.94
2022-09-05T15:29:34.505Z,101075.62
2022-09-05T15:32:22.686Z,101076.00
2022-09-05T15:34:52.338Z,101085.09
2022-09-05T15:37:28.113Z,101083.03
2022-09-05T15:40:12.310Z,101074.31
2022-09-05T15:42:50.709Z,101065.00
2022-09-05T15:45:26.237Z,101068.09
2022-09-05T15:48:26.001Z,101063.91
2022-09-05T15:50:57.064Z,101071.59
2022-09-05T15:53:37.116Z,101067.25
2022-09-05T15:56:10.190Z,101078.84
2022-09-05T15:58:53.538Z,101074.28
2022-09-05T16:01:58.294Z,101075.53
2022-09-05T16:09:06.067Z,101079.44
2022-09-05T16:10:49.818Z,101082.34
2022-09-05T16:10:50.283Z,101079.25
2022-09-05T16:12:57.690Z,101075.09
2022-09-05T16:21:05.318Z,101088.72
2022-09-05T16:23:19.495Z,101089.97
2022-09-05T16:23:33.824Z,101091.19
2022-09-05T16:24:05.949Z,101097.16
2022-09-05T16:26:41.982Z,101091.16
2022-09-05T16:29:26.219Z,101103.16
2022-09-05T16:32:02.148Z,101096.31
2022-09-05T16:34:56.377Z,101099.00
2022-09-05T16:37:38.738Z,101094.87
2022-09-05T16:40:23.396Z,101107.66
2022-09-05T16:43:21.435Z,101105.19
2022-09-05T16:45:57.364Z,101107.66
2022-09-05T16:48:44.547Z,101099.09
2022-09-05T16:51:50.575Z,101112.56
2022-09-05T16:54:55.548Z,101110.25
2022-09-05T16:57:35.806Z,101118.72
2022-09-05T17:00:07.977Z,101104.19
2022-09-05T17:02:50.760Z,101109.97
2022-09-05T17:05:39.145Z,101121.13
2022-09-05T17:08:23.129Z,101133.56
2022-09-05T17:11:03.716Z,101138.28
2022-09-05T17:13:54.182Z,101138.47
2022-09-05T17:16:36.872Z,101140.34
2022-09-05T17:19:04.020Z,101145.91
2022-09-05T17:28:30.037Z,101145.28
2022-09-05T17:29:18.295Z,101152.09
2022-09-05T17:29:34.492Z,101156.03
2022-09-05T17:33:44.861Z,101163.25
2022-09-05T17:36:22.342Z,101162.37
2022-09-05T17:39:16.390Z,101163.84
2022-09-05T17:42:19.140Z,101166.53
2022-09-05T17:45:02.908Z,101154.84
2022-09-05T17:47:36.327Z,101173.31
2022-09-05T17:50:39.394Z,101155.66
2022-09-05T17:53:25.245Z,101182.78
2022-09-05T17:55:55.030Z,101169.94
2022-09-05T17:58:49.149Z,101172.16
2022-09-05T18:01:29.910Z,101164.62
2022-09-05T18:04:15.773Z,101166.03
2022-09-05T18:07:00.648Z,101179.91
2022-09-05T18:09:55.806Z,101178.19
2022-09-05T18:13:31.306Z,101177.78
2022-09-05T18:15:27.500Z,101178.19
2022-09-05T18:17:54.433Z,101187.66
2022-09-05T18:21:12.154Z,101181.84
2022-09-05T18:23:54.091Z,101186.75
2022-09-05T18:26:24.638Z,101181.12
2022-09-05T18:29:14.598Z,101184.56
2022-09-05T18:31:43.562Z,101188.31
2022-09-05T18:34:15.044Z,101187.44
2022-09-05T18:36:45.235Z,101189.31
2022-09-05T18:39:29.227Z,101182.47
2022-09-05T18:42:26.190Z,101187.00
2022-09-05T18:45:03.401Z,101187.22
2022-09-05T18:47:57.439Z,101187.41
2022-09-05T18:50:32.132Z,101186.56
2022-09-05T18:53:10.201Z,101186.09
2022-09-05T18:56:20.781Z,101189.81
2022-09-05T18:58:51.777Z,101182.78
2022-09-05T19:01:48.682Z,101182.31
2022-09-05T19:04:41.452Z,101178.81
2022-09-05T19:07:14.285Z,101181.69
2022-09-05T19:10:00.844Z,101185.56
2022-09-05T19:13:00.424Z,101173.97
2022-09-05T19:15:31.976Z,101182.63
2022-09-05T19:18:26.815Z,101182.84
2022-09-05T19:21:11.806Z,101180.53
2022-09-05T19:23:55.235Z,101179.72
2022-09-05T19:26:23.458Z,101186.09
2022-09-05T19:36:44.960Z,101185.81
2022-09-05T19:36:52.544Z,101186.56
2022-09-05T19:37:06.457Z,101182.47
2022-09-05T19:37:38.654Z,101187.97
2022-09-05T19:43:24.120Z,101181.12
2022-09-05T19:47:28.229Z,101195.34
2022-09-05T19:47:44.912Z,101196.41
2022-09-05T19:49:09.542Z,101195.53
2022-09-05T19:51:38.844Z,101199.63
2022-09-05T19:54:06.107Z,101204.53
2022-09-05T19:56:38.611Z,101185.87
2022-09-05T19:59:27.138Z,101193.34
2022-09-05T20:02:02.648Z,101192.06
2022-09-05T20:04:35.910Z,101191.78
2022-09-05T20:07:15.529Z,101184.81
2022-09-05T20:09:47.013Z,101176.31
2022-09-05T20:12:24.587Z,101199.25
2022-09-05T20:14:52.055Z,101198.41
2022-09-05T20:17:26.289Z,101185.47
2022-09-05T20:20:25.495Z,101197.50
2022-09-05T20:22:57.823Z,101197.88
2022-09-05T20:25:40.025Z,101197.56
2022-09-05T20:28:21.791Z,101201.28
2022-09-05T20:30:54.011Z,101197.31
2022-09-05T20:33:20.674Z,101184.72
2022-09-05T20:42:55.437Z,101197.69
2022-09-05T20:43:17.030Z,101198.41
2022-09-05T20:43:29.180Z,101199.78
2022-09-05T20:44:24.980Z,101207.53
2022-09-05T20:54:08.220Z,101208.25
2022-09-05T20:54:16.038Z,101207.78
2022-09-05T20:54:23.205Z,101209.53
2022-09-05T20:55:41.242Z,101212.75
2022-09-05T20:58:31.654Z,101216.16
2022-09-05T21:01:32.517Z,101218.56
2022-09-05T21:04:05.005Z,101214.56
2022-09-05T21:06:34.545Z,101221.47
2022-09-05T21:09:15.473Z,101209.47
2022-09-05T21:11:50.276Z,101212.66
2022-09-05T21:14:20.097Z,101201.91
2022-09-05T21:16:56.301Z,101213.06
2022-09-05T21:19:34.697Z,101211.94
2022-09-05T21:22:17.000Z,101219.50
2022-09-05T21:24:46.580Z,101205.50
2022-09-05T21:27:25.299Z,101224.53
2022-09-05T21:29:59.452Z,101220.75
2022-09-05T21:32:38.121Z,101207.72
2022-09-05T21:35:34.688Z,101207.44
2022-09-05T21:37:58.541Z,101219.25
2022-09-05T21:40:25.335Z,101225.31
2022-09-05T21:47:35.463Z,101218.66
2022-09-05T21:47:41.435Z,101223.50
2022-09-05T21:48:27.872Z,101223.22
2022-09-05T21:50:58.293Z,101225.72
2022-09-05T21:59:18.157Z,101221.06
2022-09-05T21:59:20.183Z,101218.75
2022-09-05T21:59:41.656Z,101223.78
2022-09-05T22:02:17.360Z,101218.16
2022-09-05T22:04:44.462Z,101221.13
2022-09-05T22:07:21.668Z,101203.97
2022-09-05T22:09:59.479Z,101208.19
2022-09-05T22:12:36.847Z,101221.22
2022-09-05T22:15:27.880Z,101205.38
2022-09-05T22:18:06.360Z,101210.37
2022-09-05T22:20:51.310Z,101215.22
2022-09-05T22:23:36.975Z,101203.88
2022-09-05T22:26:07.883Z,101202.56
2022-09-05T22:28:38.460Z,101210.22
2022-09-05T22:31:07.086Z,101217.59
2022-09-05T22:33:35.117Z,101213.59
2022-09-05T22:36:01.972Z,101213.91
2022-09-05T22:38:29.033Z,101212.41
2022-09-05T22:40:57.004Z,101207.59
2022-09-05T22:43:23.936Z,101220.94
2022-09-05T22:45:56.448Z,101213.25
2022-09-05T22:48:23.760Z,101216.09
2022-09-05T22:50:50.851Z,101213.94
2022-09-05T22:53:17.856Z,101214.28
2022-09-05T22:55:44.739Z,101201.28
2022-09-05T22:58:13.811Z,101211.47
2022-09-05T23:00:41.847Z,101215.28
2022-09-05T23:03:09.074Z,101209.63
2022-09-05T23:05:36.003Z,101192.25
2022-09-05T23:08:05.047Z,101197.25
2022-09-05T23:10:33.066Z,101197.59
2022-09-05T23:13:04.024Z,101205.94
2022-09-05T23:15:31.220Z,101195.59
2022-09-05T23:17:59.807Z,101189.75
2022-09-05T23:20:28.952Z,101201.59
2022-09-05T23:22:56.707Z,101201.12
2022-09-05T23:25:24.089Z,101188.22
2022-09-05T23:27:50.807Z,101198.56
2022-09-05T23:30:18.604Z,101187.22
2022-09-05T23:32:46.359Z,101189.22
2022-09-05T23:35:14.150Z,101201.56
2022-09-05T23:37:45.580Z,101196.56
2022-09-05T23:40:13.773Z,101202.06
2022-09-05T23:42:41.687Z,101197.22
2022-09-05T23:45:09.779Z,101198.53
2022-09-05T23:47:37.188Z,101200.53
2022-09-05T23:50:04.758Z,101190.16
2022-09-05T23:52:37.429Z,101209.84
2022-09-05T23:55:04.574Z,101210.34
2022-09-05T23:57:31.697Z,101213.84
2022-09-05T23:59:58.399Z,101208.66
